Time;durP1;ratioP1;P1;durP2;ratioP2;P2;SDS_P1;SDS_P2;PMS_P1;PMS_P2;Temp;Humidity;BMP_temperature;BMP_pressure;BME280_temperature;BME280_humidity;BME280_pressure;Samples;Min_cycle;Max_cycle;Signal;HPM_P1;HPM_P2
2021/10/19 00:01:49;;;;;;;26.40;23.90;;;12.10;99.90;;;;;;5031451;28;20483;-63
2021/10/19 00:04:17;;;;;;;26.77;24.47;;;12.10;99.90;;;;;;5031430;28;20502;-63
2021/10/19 00:06:44;;;;;;;22.97;20.90;;;12.10;99.90;;;;;;5036417;28;20818;-64
2021/10/19 00:09:11;;;;;;;25.53;23.10;;;12.10;99.90;;;;;;5051070;28;20464;-64
2021/10/19 00:11:37;;;;;;;26.37;23.97;;;12.20;99.90;;;;;;5055229;28;20443;-63
2021/10/19 00:14:04;;;;;;;25.27;22.87;;;12.20;99.90;;;;;;5055355;28;20452;-64
2021/10/19 00:16:31;;;;;;;25.83;23.53;;;12.20;99.90;;;;;;5052009;28;20864;-65
2021/10/19 00:18:58;;;;;;;23.97;21.80;;;12.20;99.90;;;;;;5034828;28;20484;-63
2021/10/19 00:21:26;;;;;;;24.70;22.50;;;12.20;99.90;;;;;;5035147;28;20491;-64
2021/10/19 00:23:53;;;;;;;22.70;20.87;;;12.20;99.90;;;;;;5035178;28;20444;-65
2021/10/19 00:26:19;;;;;;;24.00;21.83;;;12.20;99.90;;;;;;5049982;28;20941;-63
2021/10/19 00:28:46;;;;;;;24.10;22.07;;;12.20;99.90;;;;;;5054731;28;20444;-63
2021/10/19 00:31:13;;;;;;;24.37;22.07;;;12.20;99.90;;;;;;5054901;28;20448;-65
2021/10/19 00:33:40;;;;;;;24.60;22.20;;;12.20;99.90;;;;;;5055027;28;20439;-63
2021/10/19 00:36:06;;;;;;;24.37;22.27;;;12.10;99.90;;;;;;5041558;28;20946;-63
2021/10/19 00:38:35;;;;;;;23.97;21.30;;;12.20;99.90;;;;;;5034469;28;20452;-65
2021/10/19 00:41:01;;;;;;;23.57;21.27;;;12.10;99.90;;;;;;5034744;28;20484;-65
2021/10/19 00:43:28;;;;;;;27.00;24.33;;;12.20;99.90;;;;;;5034910;28;20449;-64
2021/10/19 00:45:55;;;;;;;23.73;21.33;;;12.20;99.90;;;;;;5045479;28;20551;-63
2021/10/19 00:48:26;;;;;;;25.10;22.80;;;12.20;99.90;;;;;;5054461;28;20439;-65
2021/10/19 00:50:53;;;;;;;23.70;21.70;;;12.20;99.90;;;;;;5054499;28;20703;-64
2021/10/19 00:53:20;;;;;;;24.43;22.23;;;12.20;99.90;;;;;;5054556;28;20455;-64
2021/10/19 00:55:48;;;;;;;23.90;21.90;;;12.20;99.90;;;;;;5044527;28;20448;-63
2021/10/19 00:58:15;;;;;;;23.63;21.50;;;12.20;99.90;;;;;;5034301;28;20514;-64
2021/10/19 01:00:42;;;;;;;24.97;22.77;;;12.20;99.90;;;;;;5034333;28;20849;-65
2021/10/19 01:03:08;;;;;;;24.07;21.87;;;12.30;99.90;;;;;;5034447;28;20445;-64
2021/10/19 01:05:35;;;;;;;24.60;22.57;;;12.30;99.90;;;;;;5041916;28;20463;-64
2021/10/19 01:08:02;;;;;;;24.33;22.23;;;12.20;99.90;;;;;;5054045;28;20440;-65
2021/10/19 01:10:29;;;;;;;26.10;23.70;;;12.30;99.90;;;;;;5054165;28;20457;-66
2021/10/19 01:12:58;;;;;;;23.87;21.80;;;12.30;99.90;;;;;;5054135;28;20467;-64
2021/10/19 01:15:25;;;;;;;22.70;20.50;;;12.30;99.90;;;;;;5047688;28;20448;-65
2021/10/19 01:17:52;;;;;;;24.33;22.33;;;12.30;99.90;;;;;;5033971;28;20471;-64
2021/10/19 01:20:26;;;;;;;25.37;23.10;;;12.30;99.90;;;;;;5034080;28;20477;-66
2021/10/19 01:22:54;;;;;;;25.23;22.80;;;12.30;99.90;;;;;;5033981;28;20436;-66
2021/10/19 01:25:22;;;;;;;24.90;22.50;;;12.20;99.90;;;;;;5039179;28;20444;-64
2021/10/19 01:27:51;;;;;;;23.77;21.77;;;12.20;99.90;;;;;;5053750;28;20933;-65
2021/10/19 01:30:18;;;;;;;24.33;22.27;;;12.20;99.90;;;;;;5053874;28;20460;-65
2021/10/19 01:32:45;;;;;;;22.67;20.80;;;12.20;99.90;;;;;;5053514;28;20842;-64
2021/10/19 01:35:12;;;;;;;22.67;20.53;;;12.20;99.90;;;;;;5053729;28;20444;-65
2021/10/19 01:37:41;;;;;;;23.20;21.00;;;12.10;99.90;;;;;;5053652;28;20448;-66
2021/10/19 01:40:10;;;;;;;22.60;20.27;;;12.10;99.90;;;;;;5053590;28;20475;-66
2021/10/19 01:42:37;;;;;;;22.47;20.47;;;12.10;99.90;;;;;;5052423;28;20452;-67
2021/10/19 01:45:04;;;;;;;22.77;20.73;;;12.10;99.90;;;;;;5053517;28;20451;-66
2021/10/19 01:47:31;;;;;;;23.77;20.83;;;12.10;99.90;;;;;;5053529;28;20451;-65
2021/10/19 01:49:58;;;;;;;23.60;21.30;;;12.10;99.90;;;;;;5053205;28;20460;-65
2021/10/19 01:52:24;;;;;;;22.10;19.97;;;12.10;99.90;;;;;;5034132;28;20521;-66
2021/10/19 01:54:52;;;;;;;23.43;21.40;;;12.00;99.90;;;;;;5033419;28;20440;-65
2021/10/19 01:57:19;;;;;;;22.80;20.60;;;12.00;99.90;;;;;;5033462;28;20457;-65
2021/10/19 01:59:46;;;;;;;21.77;19.43;;;12.00;99.90;;;;;;5033235;28;20468;-65
2021/10/19 02:02:12;;;;;;;23.30;21.00;;;12.00;99.90;;;;;;5050379;28;20473;-65
2021/10/19 02:04:39;;;;;;;22.00;19.80;;;12.00;99.90;;;;;;5053444;28;20444;-66
2021/10/19 02:07:06;;;;;;;20.50;18.60;;;12.00;99.90;;;;;;5053176;28;20451;-66
2021/10/19 02:09:32;;;;;;;22.03;18.90;;;11.90;99.90;;;;;;5044071;28;20994;-66
2021/10/19 02:12:00;;;;;;;21.80;19.63;;;11.90;99.90;;;;;;5033167;28;20441;-66
2021/10/19 02:14:27;;;;;;;21.27;19.13;;;12.00;99.90;;;;;;5033295;28;20452;-66
2021/10/19 02:16:54;;;;;;;22.37;20.07;;;12.00;99.90;;;;;;5033118;28;20452;-66
2021/10/19 02:19:25;;;;;;;22.33;20.03;;;12.00;99.90;;;;;;5038653;28;20867;-66
2021/10/19 02:21:52;;;;;;;26.20;20.47;;;11.90;99.90;;;;;;5052544;28;20486;-66
2021/10/19 02:24:19;;;;;;;24.03;21.47;;;12.00;99.90;;;;;;5052892;28;20448;-66
2021/10/19 02:26:46;;;;;;;21.20;18.77;;;12.00;99.90;;;;;;5045399;28;20445;-66
2021/10/19 02:29:15;;;;;;;21.13;18.93;;;12.00;99.90;;;;;;5046130;28;20475;-66
2021/10/19 02:31:42;;;;;;;23.07;20.73;;;12.00;99.90;;;;;;5052718;28;20444;-66
2021/10/19 02:34:09;;;;;;;22.00;19.80;;;12.00;99.90;;;;;;5051859;28;20441;-65
2021/10/19 02:36:36;;;;;;;22.93;20.57;;;12.00;99.90;;;;;;5044786;28;20445;-66
2021/10/19 02:39:04;;;;;;;24.37;21.50;;;12.00;99.90;;;;;;5032355;28;20472;-64
2021/10/19 02:41:31;;;;;;;22.50;19.23;;;11.90;99.90;;;;;;5032531;28;20484;-66
2021/10/19 02:43:58;;;;;;;20.30;18.20;;;11.90;99.90;;;;;;5032491;28;20445;-66
2021/10/19 02:46:26;;;;;;;21.40;19.27;;;11.90;99.90;;;;;;5037973;28;20441;-64
2021/10/19 02:48:53;;;;;;;22.37;19.97;;;12.00;99.90;;;;;;5051703;28;20476;-64
2021/10/19 02:51:20;;;;;;;23.47;19.80;;;11.90;99.90;;;;;;5052342;28;20463;-66
2021/10/19 02:53:47;;;;;;;24.60;19.50;;;12.00;99.90;;;;;;5052416;28;20444;-66
2021/10/19 02:56:13;;;;;;;24.43;21.20;;;12.00;99.90;;;;;;5048498;28;20468;-66
2021/10/19 02:58:40;;;;;;;19.50;17.40;;;11.90;99.90;;;;;;5033049;28;20437;-65
2021/10/19 03:01:07;;;;;;;20.70;18.30;;;11.90;99.90;;;;;;5032213;28;20997;-65
2021/10/19 03:03:35;;;;;;;21.73;18.40;;;12.00;99.90;;;;;;5032268;28;20452;-65
2021/10/19 03:06:02;;;;;;;24.53;20.60;;;11.90;99.90;;;;;;5033976;28;20448;-65
2021/10/19 03:08:28;;;;;;;20.37;17.83;;;11.90;99.90;;;;;;5051792;28;20938;-66
2021/10/19 03:10:56;;;;;;;23.33;20.83;;;11.90;99.90;;;;;;5051868;28;20479;-64
2021/10/19 03:13:22;;;;;;;21.40;19.10;;;11.90;99.90;;;;;;5051938;28;20440;-64
2021/10/19 03:15:49;;;;;;;20.93;18.30;;;11.90;99.90;;;;;;5051506;28;20451;-64
2021/10/19 03:18:16;;;;;;;18.97;16.97;;;12.00;99.90;;;;;;5031948;28;20449;-64
2021/10/19 03:20:44;;;;;;;20.30;16.50;;;12.00;99.90;;;;;;5031792;28;20488;-64
2021/10/19 03:23:11;;;;;;;21.30;18.37;;;11.90;99.90;;;;;;5031844;28;20444;-64
2021/10/19 03:25:37;;;;;;;21.00;18.80;;;12.00;99.90;;;;;;5031755;28;20444;-64
2021/10/19 03:28:05;;;;;;;20.47;18.27;;;12.00;99.90;;;;;;5050103;28;20453;-64
2021/10/19 03:30:31;;;;;;;29.33;18.93;;;12.00;99.90;;;;;;5051657;28;20831;-64
2021/10/19 03:32:58;;;;;;;22.50;18.90;;;12.00;99.90;;;;;;5048402;28;20468;-64
2021/10/19 03:35:26;;;;;;;24.17;18.80;;;12.00;99.90;;;;;;5031745;28;20499;-64
2021/10/19 03:37:55;;;;;;;23.83;18.60;;;12.00;99.90;;;;;;5031573;28;20441;-64
2021/10/19 03:40:21;;;;;;;20.90;17.60;;;12.00;99.90;;;;;;5031483;28;20468;-64
2021/10/19 03:42:48;;;;;;;24.50;19.20;;;12.00;99.90;;;;;;5032604;28;20481;-64
2021/10/19 03:45:15;;;;;;;26.13;20.30;;;12.00;99.90;;;;;;5050820;28;20507;-64
2021/10/19 03:47:42;;;;;;;23.20;17.53;;;12.00;99.90;;;;;;5051352;28;20444;-64
2021/10/19 03:50:10;;;;;;;21.47;17.90;;;12.00;99.90;;;;;;5051251;28;20471;-64
2021/10/19 03:52:37;;;;;;;23.77;18.87;;;12.00;99.90;;;;;;5051391;28;20440;-64
2021/10/19 03:55:07;;;;;;;23.43;18.03;;;12.00;99.90;;;;;;5031885;28;20456;-64
2021/10/19 03:57:34;;;;;;;27.23;21.07;;;12.00;99.90;;;;;;5031536;28;20934;-64
2021/10/19 04:00:01;;;;;;;25.70;20.00;;;12.00;99.90;;;;;;5031123;28;20468;-64
2021/10/19 04:02:27;;;;;;;25.70;19.70;;;12.00;99.90;;;;;;5031496;28;20476;-64
2021/10/19 04:04:54;;;;;;;24.93;19.50;;;12.00;99.90;;;;;;5049256;28;20783;-64
2021/10/19 04:07:21;;;;;;;28.17;19.43;;;12.00;99.90;;;;;;5051258;28;20444;-65
2021/10/19 04:09:48;;;;;;;26.20;20.43;;;12.00;99.90;;;;;;5051015;28;20460;-64
2021/10/19 04:12:16;;;;;;;25.83;19.80;;;12.00;99.90;;;;;;5051393;28;20433;-63
2021/10/19 04:14:42;;;;;;;29.10;20.67;;;12.00;99.90;;;;;;5034866;28;20452;-63
2021/10/19 04:17:09;;;;;;;35.17;21.47;;;12.00;99.90;;;;;;5031316;28;20444;-64
2021/10/19 04:19:36;;;;;;;31.20;22.20;;;12.00;99.90;;;;;;5079860;22;20484;-61
2021/10/19 04:22:02;;;;;;;28.33;21.50;;;11.90;99.90;;;;;;5062805;28;20482;-61
2021/10/19 04:24:29;;;;;;;25.80;20.20;;;12.00;99.90;;;;;;5070505;28;20447;-60
2021/10/19 04:26:56;;;;;;;29.80;20.53;;;11.90;99.90;;;;;;5071169;28;20451;-59
2021/10/19 04:29:24;;;;;;;30.43;20.80;;;11.90;99.90;;;;;;5070870;28;20463;-61
2021/10/19 04:31:50;;;;;;;28.30;20.87;;;12.00;99.90;;;;;;5071306;28;20443;-61
2021/10/19 04:34:17;;;;;;;27.10;22.03;;;11.90;99.90;;;;;;5058529;28;20459;-61
2021/10/19 04:36:44;;;;;;;31.07;24.10;;;11.90;99.90;;;;;;5051023;28;20436;-60
2021/10/19 04:39:10;;;;;;;31.57;21.50;;;11.90;99.90;;;;;;5050808;28;20448;-61
2021/10/19 04:41:43;;;;;;;32.27;23.37;;;11.90;99.90;;;;;;5051766;28;20476;-61
2021/10/19 04:44:10;;;;;;;32.93;22.80;;;11.90;99.90;;;;;;5050879;28;20991;-61
2021/10/19 04:46:39;;;;;;;30.23;22.00;;;12.00;99.90;;;;;;5051078;28;20440;-62
2021/10/19 04:49:06;;;;;;;32.07;23.03;;;11.90;99.90;;;;;;5050598;28;20451;-62
2021/10/19 04:51:32;;;;;;;30.07;21.80;;;12.00;99.90;;;;;;5068552;28;20439;-61
2021/10/19 04:53:59;;;;;;;29.40;23.23;;;12.00;99.90;;;;;;5071101;28;20805;-59
2021/10/19 04:56:26;;;;;;;25.57;19.70;;;12.00;99.90;;;;;;5071480;28;20999;-62
2021/10/19 04:58:53;;;;;;;29.53;21.57;;;12.00;99.90;;;;;;5074345;28;20903;-60
2021/10/19 05:01:20;;;;;;;32.97;24.10;;;12.00;99.90;;;;;;5058324;28;20455;-59
2021/10/19 05:03:48;;;;;;;32.90;22.90;;;12.00;99.90;;;;;;5054200;28;20448;-61
2021/10/19 05:06:15;;;;;;;31.13;20.40;;;12.00;99.90;;;;;;5054414;28;20452;-61
2021/10/19 05:08:42;;;;;;;27.70;20.77;;;12.10;99.90;;;;;;5054159;28;20448;-61
2021/10/19 05:11:09;;;;;;;32.30;22.80;;;12.10;99.90;;;;;;5053958;28;20468;-61
2021/10/19 05:13:36;;;;;;;30.40;21.17;;;12.10;99.90;;;;;;5054304;28;20459;-59
2021/10/19 05:16:03;;;;;;;29.63;21.10;;;12.10;99.90;;;;;;5054161;28;20456;-60
2021/10/19 05:18:30;;;;;;;31.47;22.53;;;12.10;99.90;;;;;;5053943;28;20859;-60
2021/10/19 05:20:59;;;;;;;30.73;21.73;;;12.20;99.90;;;;;;5053929;28;20475;-60
2021/10/19 05:23:25;;;;;;;26.90;18.57;;;12.20;99.90;;;;;;5053990;28;20510;-60
2021/10/19 05:25:52;;;;;;;25.83;19.10;;;12.20;99.90;;;;;;5054119;28;20452;-61
2021/10/19 05:28:19;;;;;;;29.27;21.57;;;12.20;99.90;;;;;;5053654;28;20445;-61
2021/10/19 05:30:46;;;;;;;33.97;20.37;;;12.20;99.90;;;;;;5053895;28;20472;-61
2021/10/19 05:33:12;;;;;;;32.43;22.37;;;12.30;99.90;;;;;;5053648;28;20443;-60
2021/10/19 05:35:39;;;;;;;33.63;21.33;;;12.30;99.90;;;;;;5053746;28;20941;-59
2021/10/19 05:38:07;;;;;;;33.67;22.10;;;12.30;99.90;;;;;;5053501;28;20448;-58
2021/10/19 05:40:34;;;;;;;32.70;23.30;;;12.30;99.90;;;;;;5053504;28;20464;-59
2021/10/19 05:43:00;;;;;;;30.97;21.10;;;12.40;99.90;;;;;;5053576;28;20487;-56
2021/10/19 05:45:27;;;;;;;30.87;20.30;;;12.40;99.90;;;;;;5053586;28;20450;-60
2021/10/19 05:47:54;;;;;;;27.03;20.23;;;12.40;99.90;;;;;;5053280;28;20448;-60
2021/10/19 05:50:21;;;;;;;32.60;20.50;;;12.40;99.90;;;;;;5053232;28;20472;-60
2021/10/19 05:52:47;;;;;;;31.90;21.50;;;12.50;99.90;;;;;;5053422;28;20811;-60
2021/10/19 05:55:16;;;;;;;28.30;20.90;;;12.50;99.90;;;;;;5053274;28;20448;-60
2021/10/19 05:57:42;;;;;;;23.40;19.60;;;12.50;99.90;;;;;;5053229;28;20448;-59
2021/10/19 06:00:10;;;;;;;27.67;20.70;;;12.50;99.90;;;;;;5053090;28;20966;-59
2021/10/19 06:02:37;;;;;;;28.20;22.17;;;12.50;99.90;;;;;;5053102;28;20484;-59
2021/10/19 06:05:04;;;;;;;27.90;21.80;;;12.60;99.90;;;;;;5053174;28;20472;-58
2021/10/19 06:07:31;;;;;;;32.30;21.60;;;12.60;99.90;;;;;;5052890;28;20448;-60
2021/10/19 06:09:58;;;;;;;28.07;20.97;;;12.60;99.90;;;;;;5052823;28;20475;-61
2021/10/19 06:12:27;;;;;;;35.10;24.50;;;12.60;99.90;;;;;;5052956;28;20436;-61
2021/10/19 06:14:54;;;;;;;29.93;22.47;;;12.60;99.90;;;;;;5053072;28;20454;-57
2021/10/19 06:17:20;;;;;;;31.80;21.93;;;12.60;99.90;;;;;;5052786;28;20444;-58
2021/10/19 06:19:47;;;;;;;29.10;19.50;;;12.60;99.90;;;;;;5052578;28;20841;-59
2021/10/19 06:22:14;;;;;;;31.20;21.47;;;12.70;99.90;;;;;;5052809;28;20480;-61
2021/10/19 06:24:41;;;;;;;35.20;22.30;;;12.70;99.90;;;;;;5052971;28;20467;-56
2021/10/19 06:27:08;;;;;;;32.40;21.70;;;12.70;99.90;;;;;;5052809;28;20444;-61
2021/10/19 06:29:36;;;;;;;33.67;24.37;;;12.70;99.90;;;;;;5052307;28;20471;-58
2021/10/19 06:32:04;;;;;;;32.23;22.20;;;12.80;99.90;;;;;;5052606;28;20453;-60
2021/10/19 06:34:30;;;;;;;29.37;22.13;;;12.80;99.90;;;;;;5052585;28;20444;-61
2021/10/19 06:36:57;;;;;;;31.10;22.67;;;12.80;99.90;;;;;;5052505;28;20456;-60
2021/10/19 06:39:24;;;;;;;26.40;21.10;;;12.80;99.90;;;;;;5052276;28;20832;-61
2021/10/19 06:41:50;;;;;;;29.87;20.37;;;12.80;99.90;;;;;;5052455;28;20448;-59
2021/10/19 06:44:17;;;;;;;24.23;19.37;;;12.90;99.90;;;;;;5052505;28;20448;-61
2021/10/19 06:46:45;;;;;;;27.23;19.57;;;12.90;99.90;;;;;;5052325;28;20787;-59
2021/10/19 06:49:13;;;;;;;26.53;19.87;;;12.90;99.90;;;;;;5052070;28;20463;-60
2021/10/19 06:51:40;;;;;;;29.00;18.73;;;13.00;99.90;;;;;;5052381;28;20456;-59
2021/10/19 06:54:07;;;;;;;25.33;19.73;;;13.00;99.90;;;;;;5052239;28;20436;-59
2021/10/19 06:56:34;;;;;;;32.77;20.73;;;13.00;99.90;;;;;;5052230;28;20945;-59
2021/10/19 06:59:00;;;;;;;26.43;19.73;;;13.00;99.90;;;;;;5051921;28;20455;-61
2021/10/19 07:01:27;;;;;;;24.27;18.43;;;13.00;99.90;;;;;;5052178;28;20440;-60
2021/10/19 07:03:55;;;;;;;29.13;20.73;;;13.00;99.90;;;;;;5052000;28;20480;-61
2021/10/19 07:06:24;;;;;;;31.20;18.67;;;13.00;99.90;;;;;;5052006;28;20445;-61
2021/10/19 07:08:50;;;;;;;30.23;22.20;;;13.00;99.90;;;;;;5051833;28;20459;-61
2021/10/19 07:11:17;;;;;;;32.43;20.40;;;13.10;99.90;;;;;;5051806;28;20464;-60
2021/10/19 07:13:44;;;;;;;29.00;20.63;;;13.20;99.90;;;;;;5052093;28;20440;-61
2021/10/19 07:16:10;;;;;;;22.23;18.07;;;13.20;99.90;;;;;;5051931;28;20451;-59
2021/10/19 07:18:37;;;;;;;23.47;20.33;;;13.20;99.90;;;;;;5051455;28;20812;-61
2021/10/19 07:21:05;;;;;;;21.63;17.47;;;13.20;99.90;;;;;;5051285;28;20483;-61
2021/10/19 07:23:32;;;;;;;28.70;19.30;;;13.30;99.90;;;;;;5051778;28;20491;-59
2021/10/19 07:25:59;;;;;;;20.40;18.30;;;13.30;99.90;;;;;;5051671;28;20443;-61
2021/10/19 07:28:25;;;;;;;24.83;18.03;;;13.30;99.90;;;;;;5051764;28;20952;-61
2021/10/19 07:30:52;;;;;;;21.47;17.03;;;13.30;99.90;;;;;;5051587;28;20474;-60
2021/10/19 07:33:19;;;;;;;24.50;16.80;;;13.30;99.90;;;;;;5051622;28;20449;-59
2021/10/19 07:35:46;;;;;;;22.13;16.87;;;13.40;99.90;;;;;;5051678;28;20453;-61
2021/10/19 07:38:14;;;;;;;20.77;16.43;;;13.40;99.90;;;;;;5051418;28;20794;-60
2021/10/19 07:40:41;;;;;;;20.03;14.73;;;13.40;99.90;;;;;;5051479;28;20464;-60
2021/10/19 07:43:08;;;;;;;23.10;17.30;;;13.40;99.90;;;;;;5051519;28;20484;-61
2021/10/19 07:45:35;;;;;;;19.40;16.30;;;13.40;99.90;;;;;;5051177;28;20531;-61
2021/10/19 07:48:02;;;;;;;26.77;15.87;;;13.50;99.90;;;;;;5051335;28;20444;-61
2021/10/19 07:50:30;;;;;;;19.13;16.60;;;13.50;99.90;;;;;;5051347;28;20460;-61
2021/10/19 07:52:57;;;;;;;21.83;17.50;;;13.50;99.90;;;;;;5051449;28;20440;-61
2021/10/19 07:55:27;;;;;;;22.27;16.10;;;13.60;99.90;;;;;;5051423;28;20444;-61
2021/10/19 07:57:55;;;;;;;20.23;15.70;;;13.60;99.90;;;;;;5051290;28;20478;-60
2021/10/19 08:00:23;;;;;;;18.20;16.20;;;13.60;99.90;;;;;;5051169;28;20459;-60
2021/10/19 08:02:51;;;;;;;17.17;15.37;;;13.60;99.90;;;;;;5051279;28;20486;-61
2021/10/19 08:05:19;;;;;;;20.20;15.97;;;13.70;99.90;;;;;;5051262;28;20538;-59
2021/10/19 08:07:47;;;;;;;18.37;14.80;;;13.70;99.90;;;;;;5051055;28;20933;-59
2021/10/19 08:10:15;;;;;;;16.17;13.87;;;13.80;99.90;;;;;;5051138;28;20826;-61
2021/10/19 08:12:44;;;;;;;18.90;16.60;;;13.80;99.90;;;;;;5051179;28;20441;-61
2021/10/19 08:15:12;;;;;;;17.70;15.07;;;13.80;99.90;;;;;;5051052;28;20796;-60
2021/10/19 08:17:39;;;;;;;16.47;14.77;;;13.80;99.90;;;;;;5051275;28;20454;-60
2021/10/19 08:20:07;;;;;;;16.17;13.60;;;13.80;99.90;;;;;;5050867;28;20480;-61
2021/10/19 08:22:35;;;;;;;19.00;15.83;;;13.80;99.90;;;;;;5051153;28;20450;-60
2021/10/19 08:25:03;;;;;;;17.17;15.27;;;13.90;99.90;;;;;;5051020;28;20444;-60
2021/10/19 08:27:30;;;;;;;15.23;13.63;;;13.90;99.90;;;;;;5051024;28;20452;-61
2021/10/19 08:29:58;;;;;;;16.23;13.73;;;14.00;99.90;;;;;;5050716;28;20464;-59
2021/10/19 08:32:25;;;;;;;14.93;13.40;;;13.90;99.90;;;;;;5053154;28;20933;-57
2021/10/19 08:34:52;;;;;;;17.07;13.90;;;14.00;99.90;;;;;;5054905;28;20446;-62
2021/10/19 08:37:19;;;;;;;15.17;13.60;;;14.10;99.90;;;;;;5054848;28;20479;-61
2021/10/19 08:39:45;;;;;;;15.33;13.67;;;14.10;99.90;;;;;;5054715;28;20464;-60
2021/10/19 08:42:13;;;;;;;14.97;13.30;;;14.10;99.90;;;;;;5054750;28;20455;-59
2021/10/19 08:44:41;;;;;;;13.23;11.93;;;14.20;99.90;;;;;;5054563;28;20491;-61
2021/10/19 08:47:10;;;;;;;17.63;13.33;;;14.20;99.90;;;;;;5054645;28;20470;-60
2021/10/19 08:49:36;;;;;;;14.70;13.20;;;14.30;99.90;;;;;;5054386;28;20976;-60
2021/10/19 08:52:04;;;;;;;13.80;12.60;;;14.30;99.90;;;;;;5054513;28;20460;-61
2021/10/19 08:54:30;;;;;;;13.37;11.33;;;14.40;99.90;;;;;;5054621;28;20787;-61
2021/10/19 08:56:57;;;;;;;13.23;12.03;;;14.50;99.90;;;;;;5054380;28;20448;-61
2021/10/19 08:59:25;;;;;;;13.10;11.80;;;14.50;99.90;;;;;;5054131;28;20973;-59
2021/10/19 09:01:55;;;;;;;13.13;10.60;;;14.50;99.90;;;;;;5054510;28;20454;-61
2021/10/19 09:04:28;;;;;;;12.07;10.97;;;14.50;99.90;;;;;;5054353;28;20558;-59
2021/10/19 09:06:55;;;;;;;13.13;10.67;;;14.50;99.90;;;;;;5054298;28;20448;-60
2021/10/19 09:09:24;;;;;;;13.97;12.47;;;14.60;99.90;;;;;;5053965;28;20471;-61
2021/10/19 09:11:52;;;;;;;13.40;11.93;;;14.60;99.90;;;;;;5054219;28;20531;-59
2021/10/19 09:14:20;;;;;;;12.03;10.90;;;14.60;99.90;;;;;;5054189;28;20447;-57
2021/10/19 09:16:48;;;;;;;12.70;11.40;;;14.60;99.90;;;;;;5054136;28;20501;-59
2021/10/19 09:19:17;;;;;;;10.67;9.77;;;14.70;99.90;;;;;;5053568;28;20487;-59
2021/10/19 09:21:46;;;;;;;11.80;10.70;;;14.80;99.90;;;;;;5054139;28;20440;-58
2021/10/19 09:24:21;;;;;;;10.90;10.00;;;14.80;99.90;;;;;;5053859;28;20487;-57
2021/10/19 09:26:52;;;;;;;11.17;10.07;;;14.90;99.90;;;;;;5053874;28;20490;-60
2021/10/19 09:29:19;;;;;;;10.97;9.97;;;15.00;99.90;;;;;;5053580;28;20460;-61
2021/10/19 09:31:46;;;;;;;11.90;10.13;;;15.10;99.90;;;;;;5053907;28;20444;-57
2021/10/19 09:34:13;;;;;;;11.83;9.73;;;15.20;99.90;;;;;;5053882;28;20669;-58
2021/10/19 09:36:40;;;;;;;10.73;9.63;;;15.20;99.90;;;;;;5053701;28;20447;-59
2021/10/19 09:39:08;;;;;;;10.63;9.70;;;15.20;99.90;;;;;;5053431;28;20517;-59
2021/10/19 09:41:45;;;;;;;10.90;10.00;;;15.20;99.90;;;;;;5053602;28;20447;-59
2021/10/19 09:44:16;;;;;;;10.53;9.43;;;15.20;99.90;;;;;;5053089;28;20487;-59
2021/10/19 09:46:43;;;;;;;10.23;9.30;;;15.20;99.90;;;;;;5053514;28;20471;-58
2021/10/19 09:49:12;;;;;;;11.00;10.00;;;15.20;99.90;;;;;;5053097;28;20448;-59
2021/10/19 09:51:40;;;;;;;11.00;10.00;;;15.20;99.90;;;;;;5053410;28;20444;-56
2021/10/19 09:54:10;;;;;;;11.77;10.57;;;15.20;99.90;;;;;;5053452;28;20440;-59
2021/10/19 09:56:38;;;;;;;10.37;9.47;;;15.20;99.90;;;;;;5053361;28;20440;-61
2021/10/19 09:59:06;;;;;;;10.73;9.73;;;15.10;99.90;;;;;;5053060;28;20475;-60
2021/10/19 10:01:33;;;;;;;10.20;9.17;;;15.10;99.90;;;;;;5053271;28;20448;-59
2021/10/19 10:04:01;;;;;;;11.80;10.63;;;15.00;99.90;;;;;;5053173;28;20488;-59
2021/10/19 10:06:28;;;;;;;10.37;9.57;;;15.10;99.90;;;;;;5053264;28;20448;-59
2021/10/19 10:08:57;;;;;;;11.53;10.30;;;15.10;99.90;;;;;;5052875;28;20807;-57
2021/10/19 10:11:25;;;;;;;10.73;9.63;;;15.00;99.90;;;;;;5053050;28;20455;-59
2021/10/19 10:13:56;;;;;;;10.63;9.63;;;15.10;99.90;;;;;;5052951;28;20441;-61
2021/10/19 10:16:23;;;;;;;11.03;10.03;;;15.10;99.90;;;;;;5052912;28;20440;-58
2021/10/19 10:18:50;;;;;;;10.37;9.57;;;15.20;99.90;;;;;;5052782;28;20448;-59
2021/10/19 10:21:18;;;;;;;10.43;9.63;;;15.20;99.90;;;;;;5054157;28;20498;-62
2021/10/19 10:23:46;;;;;;;9.97;9.07;;;15.30;99.90;;;;;;5053308;28;20487;-62
2021/10/19 10:26:23;;;;;;;8.93;8.23;;;15.30;99.90;;;;;;5053548;28;20448;-61
2021/10/19 10:28:51;;;;;;;10.30;9.30;;;15.40;99.90;;;;;;5053669;28;20444;-63
2021/10/19 10:31:23;;;;;;;9.90;9.00;;;15.50;99.90;;;;;;5053404;28;20451;-64
2021/10/19 10:34:00;;;;;;;10.13;9.20;;;15.40;99.90;;;;;;5053551;28;20447;-62
2021/10/19 10:36:37;;;;;;;8.60;7.90;;;15.40;99.90;;;;;;5053729;28;20443;-62
2021/10/19 10:39:06;;;;;;;9.00;8.20;;;15.40;99.90;;;;;;5053348;28;20448;-62
2021/10/19 10:41:38;;;;;;;10.13;9.23;;;15.50;99.90;;;;;;5053270;28;20487;-62
2021/10/19 10:44:09;;;;;;;12.50;11.30;;;15.40;99.90;;;;;;5053789;28;20534;-64
2021/10/19 10:46:36;;;;;;;9.73;8.90;;;15.40;99.90;;;;;;5053459;28;20506;-62
2021/10/19 10:49:03;;;;;;;10.53;9.63;;;15.40;99.90;;;;;;5053072;28;20772;-62
2021/10/19 10:51:36;;;;;;;9.80;8.97;;;15.30;99.90;;;;;;5053250;28;20531;-62
2021/10/19 10:54:03;;;;;;;10.10;9.17;;;15.20;99.90;;;;;;5052288;28;20509;-63
2021/10/19 10:56:40;;;;;;;9.97;8.97;;;15.20;99.90;;;;;;5053029;28;20948;-63
2021/10/19 10:59:09;;;;;;;8.63;7.83;;;15.30;99.90;;;;;;5052722;28;20444;-62
2021/10/19 11:01:35;;;;;;;9.60;8.90;;;15.30;99.90;;;;;;5053070;28;20467;-63
2021/10/19 11:04:06;;;;;;;8.90;8.20;;;15.40;99.90;;;;;;5053679;28;20939;-64
2021/10/19 11:06:33;;;;;;;10.67;9.73;;;15.50;99.90;;;;;;5054079;28;20448;-62
2021/10/19 11:09:02;;;;;;;9.77;8.97;;;15.60;99.90;;;;;;5052918;28;20444;-63
2021/10/19 11:11:35;;;;;;;8.90;8.13;;;15.70;99.90;;;;;;5053493;28;20451;-63
2021/10/19 11:14:05;;;;;;;9.20;8.50;;;15.80;99.90;;;;;;5053691;28;20848;-62
2021/10/19 11:16:35;;;;;;;9.87;8.90;;;15.80;99.90;;;;;;5053653;28;20448;-63
2021/10/19 11:19:05;;;;;;;9.80;8.90;;;15.80;99.90;;;;;;5052538;28;20543;-63
2021/10/19 11:21:33;;;;;;;9.27;8.40;;;15.90;99.90;;;;;;5052833;28;20535;-62
2021/10/19 11:24:00;;;;;;;8.80;8.00;;;16.10;99.90;;;;;;5052414;28;20464;-63
2021/10/19 11:26:26;;;;;;;8.90;8.20;;;16.20;99.90;;;;;;5052601;28;20448;-61
2021/10/19 11:28:56;;;;;;;9.17;8.27;;;16.30;99.90;;;;;;5052015;28;20925;-62
2021/10/19 11:31:23;;;;;;;8.50;7.80;;;16.40;99.90;;;;;;5052690;28;20460;-62
2021/10/19 11:33:52;;;;;;;8.80;8.20;;;16.50;99.90;;;;;;5052495;28;20440;-61
2021/10/19 11:36:19;;;;;;;8.77;7.97;;;16.60;99.90;;;;;;5052448;28;20977;-63
2021/10/19 11:38:49;;;;;;;8.90;8.20;;;16.60;99.90;;;;;;5052337;28;20463;-64
2021/10/19 11:41:17;;;;;;;10.00;9.30;;;16.70;99.90;;;;;;5052134;28;20463;-63
2021/10/19 11:43:45;;;;;;;8.30;7.70;;;16.80;99.90;;;;;;5052126;28;20480;-63
2021/10/19 11:46:15;;;;;;;8.87;8.27;;;16.80;99.90;;;;;;5052147;28;20444;-63
2021/10/19 11:48:42;;;;;;;8.80;8.20;;;16.80;99.90;;;;;;5051706;28;20455;-62
2021/10/19 11:51:13;;;;;;;8.50;7.90;;;16.80;99.90;;;;;;5051873;28;20827;-61
2021/10/19 11:53:41;;;;;;;8.10;7.60;;;16.90;99.90;;;;;;5051713;28;20449;-62
2021/10/19 11:56:10;;;;;;;9.87;9.10;;;17.00;99.90;;;;;;5051833;28;20794;-63
2021/10/19 11:58:47;;;;;;;9.83;9.20;;;17.00;99.90;;;;;;5051617;28;20447;-62
2021/10/19 12:01:14;;;;;;;9.80;9.20;;;17.10;99.90;;;;;;5051599;28;20459;-62
2021/10/19 12:03:41;;;;;;;10.30;9.40;;;17.10;99.90;;;;;;5052013;28;20451;-63
2021/10/19 12:06:12;;;;;;;9.40;8.70;;;17.10;99.90;;;;;;5054260;28;20827;-62
2021/10/19 12:08:43;;;;;;;9.60;9.00;;;17.10;99.90;;;;;;5056305;28;20471;-63
2021/10/19 12:11:10;;;;;;;9.40;8.80;;;17.10;99.90;;;;;;5056080;28;20464;-63
2021/10/19 12:13:38;;;;;;;9.83;8.93;;;17.10;99.90;;;;;;5055981;28;20452;-61
2021/10/19 12:16:06;;;;;;;9.50;8.90;;;17.10;99.90;;;;;;5056221;28;20451;-64
2021/10/19 12:18:41;;;;;;;9.47;8.87;;;17.10;99.90;;;;;;5055807;28;20952;-63
2021/10/19 12:21:08;;;;;;;9.47;8.77;;;17.30;99.90;;;;;;5055720;28;20468;-63
2021/10/19 12:23:38;;;;;;;9.77;9.27;;;17.40;99.90;;;;;;5057503;28;20455;-63
2021/10/19 12:26:10;;;;;;;14.33;9.67;;;17.60;99.90;;;;;;5057045;28;20502;-63
2021/10/19 12:28:36;;;;;;;10.57;9.87;;;17.80;99.90;;;;;;5055993;28;20462;-63
2021/10/19 12:31:03;;;;;;;10.40;9.53;;;17.90;99.90;;;;;;5055875;28;20460;-63
2021/10/19 12:33:31;;;;;;;10.47;9.77;;;17.80;99.90;;;;;;5056016;28;20451;-62